Terminal Aerodrome Forecast
Issued by NWS Rapid City, SD

Home | Current Version | Previous Version | Text Only | Print | Product List | Glossary On
Versions: 1 2 3 4 5 6 7 8 9 10 11 12 13 14 15 16 17 18 19 20 21 22 23
355
FTUS43 KUNR 281730
TAFRAP
TAF
KRAP 281730Z 2818/2918 02006KT P6SM BKN100
     FM282000 03009KT P6SM VCTS BKN060CB
     FM290200 30007KT P6SM SCT050 BKN100=

USA.gov is the U.S. government's official web portal to all federal, state and local government web resources and services.